Pismo Beach, California
Current Conditions -  °F | °C
As of 12:56 AM on Monday 24 Nov 2014 (Local Time) from KSBP Reporting Station
Clear Clear  
Wind Chill: 51°   Ceiling: Unl
Heat Index: 51°   Visibility: 10mi
Dew Point: 33°   Wind: 3mph
Humidity: 50%   Direction: NA
Pressure: 30.24"   Gusts: NA
Location:  35.16°N, 120.66°W
Report Text: KSBP 240856Z VRB03KT 10SM CLR 11/01 A3024 RMK AO2 SLP239 T01060006 50002
Loading
Personal Weather Stations






























Interactive Weather Map New forecast layout! Learn more

10-Day Weather Forecast

Advertisements
Track Severe Weather on mobile